createdAt,value
2018-11-02T00:00:55.025Z,8.40
2018-11-02T00:03:22.504Z,8.30
2018-11-02T00:05:49.929Z,8.30
2018-11-02T00:08:17.293Z,8.20
2018-11-02T00:10:44.713Z,8.30
2018-11-02T00:13:12.094Z,8.40
2018-11-02T00:15:39.468Z,8.40
2018-11-02T00:18:07.071Z,8.40
2018-11-02T00:20:34.457Z,8.40
2018-11-02T00:23:01.872Z,8.40
2018-11-02T00:25:29.539Z,8.40
2018-11-02T00:27:57.001Z,8.30
2018-11-02T00:30:24.365Z,8.20
2018-11-02T00:32:51.737Z,8.10
2018-11-02T00:35:19.085Z,8.00
2018-11-02T00:37:46.523Z,7.90
2018-11-02T00:40:13.872Z,7.90
2018-11-02T00:42:41.311Z,7.90
2018-11-02T00:45:10.669Z,7.80
2018-11-02T00:47:38.222Z,7.70
2018-11-02T00:50:06.379Z,7.60
2018-11-02T00:52:33.771Z,7.60
2018-11-02T00:55:01.370Z,7.60
2018-11-02T00:57:28.846Z,7.50
2018-11-02T00:59:56.279Z,7.40
2018-11-02T01:02:23.781Z,7.30
2018-11-02T01:04:51.179Z,7.40
2018-11-02T01:07:18.659Z,7.30
2018-11-02T01:09:46.011Z,7.40
2018-11-02T01:12:13.365Z,7.40
2018-11-02T01:14:40.832Z,7.30
2018-11-02T01:17:08.266Z,7.30
2018-11-02T01:19:35.729Z,7.30
2018-11-02T01:22:04.632Z,7.40
2018-11-02T01:24:32.430Z,7.30
2018-11-02T01:26:59.771Z,7.30
2018-11-02T01:29:27.231Z,7.30
2018-11-02T01:31:54.977Z,7.20
2018-11-02T01:34:22.343Z,7.20
2018-11-02T01:36:49.700Z,7.20
2018-11-02T01:39:17.134Z,7.10
2018-11-02T01:41:44.505Z,7.20
2018-11-02T01:44:11.892Z,7.30
2018-11-02T01:46:39.286Z,7.30
2018-11-02T01:49:06.897Z,7.30
2018-11-02T01:51:34.258Z,7.30
2018-11-02T01:54:01.776Z,7.30
2018-11-02T01:56:29.154Z,7.30
2018-11-02T01:58:56.516Z,7.30
2018-11-02T02:01:23.945Z,7.20
2018-11-02T02:03:51.445Z,7.20
2018-11-02T02:06:19.057Z,7.20
2018-11-02T02:08:46.416Z,7.20
2018-11-02T02:11:13.907Z,7.10
2018-11-02T02:13:41.471Z,7.10
2018-11-02T02:16:08.907Z,7.00
2018-11-02T02:18:36.293Z,7.00
2018-11-02T02:21:03.708Z,7.00
2018-11-02T02:23:31.163Z,6.90
2018-11-02T02:25:58.637Z,7.00
2018-11-02T02:28:25.984Z,7.00
2018-11-02T02:30:53.352Z,7.00
2018-11-02T02:33:21.130Z,7.00
2018-11-02T02:35:48.504Z,7.10
2018-11-02T02:38:16.813Z,7.20
2018-11-02T02:40:44.299Z,7.20
2018-11-02T02:43:11.759Z,7.20
2018-11-02T02:45:39.137Z,7.20
2018-11-02T02:48:06.539Z,7.20
2018-11-02T02:50:33.934Z,7.20
2018-11-02T02:53:01.292Z,7.20
2018-11-02T02:55:28.677Z,7.30
2018-11-02T02:57:56.745Z,7.30
2018-11-02T03:00:24.167Z,7.30
2018-11-02T03:02:51.640Z,7.30
2018-11-02T03:05:19.188Z,7.20
2018-11-02T03:07:46.629Z,7.30
2018-11-02T03:10:14.223Z,7.20
2018-11-02T03:12:41.505Z,7.20
2018-11-02T03:15:09.056Z,7.20
2018-11-02T03:17:36.936Z,7.20
2018-11-02T03:20:05.254Z,7.20
2018-11-02T03:22:32.756Z,7.20
2018-11-02T03:25:00.173Z,7.30
2018-11-02T03:27:27.642Z,7.30
2018-11-02T03:29:55.082Z,7.30
2018-11-02T03:32:22.553Z,7.30
2018-11-02T03:34:49.981Z,7.30
2018-11-02T03:37:17.345Z,7.30
2018-11-02T03:39:44.719Z,7.30
2018-11-02T03:42:12.157Z,7.20
2018-11-02T03:44:39.524Z,7.20
2018-11-02T03:47:06.919Z,7.30
2018-11-02T03:49:34.266Z,7.30
2018-11-02T03:52:01.641Z,7.30
2018-11-02T03:54:29.055Z,7.30
2018-11-02T03:56:56.501Z,7.20
2018-11-02T03:59:23.784Z,7.30
2018-11-02T04:01:51.236Z,7.20
2018-11-02T04:04:18.653Z,7.20
2018-11-02T04:06:46.135Z,7.20
2018-11-02T04:09:13.542Z,7.10
2018-11-02T04:11:40.958Z,7.20
2018-11-02T04:14:08.569Z,7.10
2018-11-02T04:16:35.942Z,7.20
2018-11-02T04:19:03.310Z,7.20
2018-11-02T04:21:35.396Z,7.20
2018-11-02T04:24:02.847Z,7.20
2018-11-02T04:26:30.402Z,7.30
2018-11-02T04:28:57.887Z,7.20
2018-11-02T04:31:25.350Z,7.20
2018-11-02T04:33:52.758Z,7.20
2018-11-02T04:36:20.237Z,7.20
2018-11-02T04:38:47.673Z,7.20
2018-11-02T04:41:15.146Z,7.10
2018-11-02T04:43:42.589Z,7.10
2018-11-02T04:46:10.084Z,7.10
2018-11-02T04:48:37.443Z,7.10
2018-11-02T04:51:05.095Z,7.00
2018-11-02T04:53:32.441Z,7.00
2018-11-02T04:56:00.880Z,7.00
2018-11-02T04:58:28.257Z,7.00
2018-11-02T05:00:55.625Z,7.00
2018-11-02T05:03:23.072Z,7.00
2018-11-02T05:05:50.568Z,6.90
2018-11-02T05:08:17.890Z,6.90
2018-11-02T05:10:45.357Z,6.90
2018-11-02T05:13:12.704Z,6.90
2018-11-02T05:15:40.172Z,6.90
2018-11-02T05:18:07.764Z,7.00
2018-11-02T05:20:35.200Z,7.00
2018-11-02T05:23:02.631Z,6.90
2018-11-02T05:25:30.213Z,7.00
2018-11-02T05:27:57.686Z,7.00
2018-11-02T05:30:25.097Z,7.00
2018-11-02T05:32:52.593Z,7.00
2018-11-02T05:35:19.924Z,7.00
2018-11-02T05:37:47.351Z,7.00
2018-11-02T05:40:14.816Z,6.90
2018-11-02T05:42:42.214Z,6.90
2018-11-02T05:45:09.672Z,6.90
2018-11-02T05:47:37.063Z,6.90
2018-11-02T05:50:04.460Z,7.00
2018-11-02T05:52:32.769Z,7.00
2018-11-02T05:55:00.370Z,7.00
2018-11-02T05:57:27.907Z,7.00
2018-11-02T05:59:55.308Z,6.90
2018-11-02T06:02:31.263Z,6.90
2018-11-02T06:05:47.633Z,6.90
2018-11-02T06:08:15.903Z,6.90
2018-11-02T06:11:48.629Z,6.90
2018-11-02T06:14:34.619Z,6.90
2018-11-02T06:17:15.491Z,6.90
2018-11-02T06:19:58.631Z,6.90
2018-11-02T06:25:21.894Z,6.90
2018-11-02T06:27:51.893Z,6.90
2018-11-02T06:30:20.873Z,7.00
2018-11-02T06:32:49.477Z,7.00
2018-11-02T06:35:18.376Z,7.00
2018-11-02T06:37:47.374Z,7.10
2018-11-02T06:40:17.671Z,7.20
2018-11-02T06:45:43.744Z,7.20
2018-11-02T06:48:17.505Z,7.30
2018-11-02T06:51:04.328Z,7.40
2018-11-02T06:53:40.016Z,7.40
2018-11-02T07:01:51.182Z,7.80
2018-11-02T07:04:29.715Z,7.90
2018-11-02T07:06:59.656Z,8.00
2018-11-02T07:10:06.608Z,8.00
2018-11-02T07:17:01.671Z,8.10
2018-11-02T07:22:57.457Z,8.30
2018-11-02T07:25:24.956Z,8.50
2018-11-02T07:27:52.602Z,8.50
2018-11-02T07:30:20.282Z,8.50
2018-11-02T07:32:48.866Z,8.60
2018-11-02T07:35:18.882Z,8.60
2018-11-02T07:37:48.139Z,8.70
2018-11-02T07:40:18.204Z,8.70
2018-11-02T07:42:46.887Z,8.70
2018-11-02T07:46:21.678Z,8.80
2018-11-02T07:48:52.558Z,8.90
2018-11-02T07:51:21.248Z,8.90
2018-11-02T07:53:49.724Z,9.10
2018-11-02T07:56:20.476Z,9.10
2018-11-02T08:03:09.201Z,9.30
2018-11-02T08:08:36.616Z,9.40
2018-11-02T08:17:21.315Z,9.50
2018-11-02T08:23:48.794Z,9.70
2018-11-02T08:26:16.496Z,9.80
2018-11-02T08:28:45.045Z,9.80
2018-11-02T08:31:13.089Z,9.90
2018-11-02T08:33:40.578Z,10.00
2018-11-02T08:36:08.152Z,10.00
2018-11-02T08:38:35.572Z,10.10
2018-11-02T08:41:03.747Z,10.10
2018-11-02T08:43:32.548Z,10.20
2018-11-02T08:46:00.212Z,10.30
2018-11-02T08:48:27.870Z,10.20
2018-11-02T08:50:55.271Z,10.10
2018-11-02T08:53:22.978Z,10.00
2018-11-02T08:55:51.254Z,9.90
2018-11-02T08:58:18.834Z,9.90
2018-11-02T09:00:46.208Z,9.90
2018-11-02T09:03:13.886Z,10.00
2018-11-02T09:05:41.360Z,10.10
2018-11-02T09:10:54.753Z,10.30
2018-11-02T09:24:48.867Z,10.90
2018-11-02T09:32:59.566Z,11.00
2018-11-02T09:49:07.590Z,11.00
2018-11-02T09:51:35.531Z,11.40
2018-11-02T09:56:26.266Z,11.50
2018-11-02T09:58:54.498Z,11.50
2018-11-02T10:01:22.265Z,11.70
2018-11-02T10:03:49.818Z,11.70
2018-11-02T10:06:17.747Z,11.70
2018-11-02T10:08:45.314Z,11.80
2018-11-02T10:11:20.138Z,11.90
2018-11-02T10:13:50.359Z,12.00
2018-11-02T10:19:57.568Z,12.00
2018-11-02T10:22:28.508Z,12.10
2018-11-02T10:24:57.514Z,12.00
2018-11-02T10:27:25.007Z,12.10
2018-11-02T10:29:52.428Z,12.20
2018-11-02T10:32:20.384Z,12.20
2018-11-02T10:34:47.959Z,12.40
2018-11-02T10:37:17.038Z,12.50
2018-11-02T10:39:54.751Z,12.50
2018-11-02T10:42:29.171Z,12.50
2018-11-02T10:44:56.934Z,12.50
2018-11-02T10:47:24.241Z,12.50
2018-11-02T10:49:51.903Z,12.50
2018-11-02T10:52:19.457Z,12.50
2018-11-02T10:54:47.094Z,12.50
2018-11-02T10:57:14.500Z,12.50
2018-11-02T10:59:42.271Z,12.50
2018-11-02T11:02:14.264Z,12.50
2018-11-02T11:04:53.165Z,12.50
2018-11-02T11:07:21.104Z,12.70
2018-11-02T11:09:48.530Z,12.80
2018-11-02T11:12:16.287Z,13.00
2018-11-02T11:17:29.925Z,13.00
2018-11-02T11:19:57.328Z,12.90
2018-11-02T11:22:25.509Z,12.90
2018-11-02T11:24:54.387Z,12.80
2018-11-02T11:30:12.685Z,12.80
2018-11-02T11:32:40.223Z,12.90
2018-11-02T11:35:10.979Z,13.00
2018-11-02T11:37:39.687Z,13.00
2018-11-02T11:40:08.423Z,13.10
2018-11-02T11:42:37.093Z,13.20
2018-11-02T12:09:29.556Z,13.60
2018-11-02T12:12:08.463Z,13.60
2018-11-02T12:14:37.723Z,13.70
2018-11-02T12:24:23.437Z,13.60
2018-11-02T12:26:52.656Z,13.80
2018-11-02T12:34:52.091Z,13.90
2018-11-02T13:11:31.274Z,13.90
2018-11-02T13:13:59.661Z,14.00
2018-11-02T13:19:33.340Z,14.20
2018-11-02T13:22:01.137Z,14.20
2018-11-02T13:24:30.176Z,14.20
2018-11-02T13:41:15.648Z,13.80
2018-11-02T13:43:43.231Z,13.70
2018-11-02T13:59:18.202Z,13.80
2018-11-02T14:01:57.528Z,14.00
2018-11-02T14:08:15.131Z,14.00
2018-11-02T14:10:51.575Z,14.10
2018-11-02T14:13:28.186Z,14.10
2018-11-02T14:18:42.590Z,14.00
2018-11-02T14:24:48.264Z,13.90
2018-11-02T14:27:15.810Z,13.80
2018-11-02T14:29:43.246Z,13.80
2018-11-02T14:32:12.475Z,13.80
2018-11-02T14:34:42.910Z,13.80
2018-11-02T15:14:14.774Z,13.30
2018-11-02T15:28:07.119Z,12.50
2018-11-02T15:33:13.972Z,12.30
2018-11-02T15:44:00.673Z,11.90
2018-11-02T15:46:30.172Z,11.80
2018-11-02T15:51:56.210Z,11.70
2018-11-02T15:54:26.761Z,11.70
2018-11-02T15:56:56.749Z,11.60
2018-11-02T15:59:30.175Z,11.60
2018-11-02T16:02:36.236Z,11.50
2018-11-02T16:05:15.367Z,11.50
2018-11-02T16:11:36.702Z,11.40
2018-11-02T16:14:47.016Z,11.40
2018-11-02T16:17:16.643Z,11.50
2018-11-02T16:29:29.532Z,11.50
2018-11-02T16:32:03.106Z,11.50
2018-11-02T16:37:22.625Z,11.30
2018-11-02T16:45:22.909Z,11.30
2018-11-02T16:50:41.248Z,11.30
2018-11-02T16:53:08.628Z,11.30
2018-11-02T16:55:36.061Z,11.20
2018-11-02T16:58:03.687Z,11.00
2018-11-02T17:00:31.028Z,10.90
2018-11-02T17:02:58.613Z,10.90
2018-11-02T17:05:25.985Z,10.90
2018-11-02T17:07:53.415Z,10.80
2018-11-02T17:10:20.922Z,10.80
2018-11-02T17:12:48.345Z,10.70
2018-11-02T17:15:15.776Z,10.60
2018-11-02T17:17:43.209Z,10.50
2018-11-02T17:20:13.066Z,10.50
2018-11-02T17:22:40.565Z,10.60
2018-11-02T17:25:08.803Z,10.70
2018-11-02T17:27:36.594Z,10.80
2018-11-02T17:30:04.358Z,10.80
2018-11-02T17:32:31.796Z,10.80
2018-11-02T17:34:59.163Z,10.80
2018-11-02T17:37:26.745Z,10.80
2018-11-02T17:39:54.155Z,10.80
2018-11-02T17:42:21.534Z,10.80
2018-11-02T17:44:48.884Z,10.70
2018-11-02T17:47:16.232Z,10.70
2018-11-02T17:49:43.612Z,10.70
2018-11-02T17:52:11.735Z,10.70
2018-11-02T17:54:39.107Z,10.70
2018-11-02T17:57:06.687Z,10.60
2018-11-02T17:59:34.167Z,10.70
2018-11-02T18:02:01.457Z,10.60
2018-11-02T18:04:28.844Z,10.50
2018-11-02T18:06:56.213Z,10.50
2018-11-02T18:09:23.597Z,10.50
2018-11-02T18:11:51.102Z,10.50
2018-11-02T18:14:18.735Z,10.60
2018-11-02T18:16:46.087Z,10.60
2018-11-02T18:19:13.851Z,10.60
2018-11-02T18:21:41.796Z,10.60
2018-11-02T18:24:09.292Z,10.60
2018-11-02T18:26:36.676Z,10.60
2018-11-02T18:29:04.166Z,10.60
2018-11-02T18:31:31.610Z,10.60
2018-11-02T18:33:58.968Z,10.60
2018-11-02T18:36:26.400Z,10.60
2018-11-02T18:38:53.852Z,10.60
2018-11-02T18:41:21.323Z,10.50
2018-11-02T18:43:48.758Z,10.50
2018-11-02T18:46:16.464Z,10.40
2018-11-02T18:48:43.883Z,10.30
2018-11-02T18:51:11.384Z,10.30
2018-11-02T18:53:38.928Z,10.20
2018-11-02T18:56:06.365Z,10.30
2018-11-02T18:58:33.954Z,10.20
2018-11-02T19:01:01.569Z,10.10
2018-11-02T19:03:29.198Z,10.10
2018-11-02T19:05:56.577Z,10.10
2018-11-02T19:08:23.972Z,10.00
2018-11-02T19:10:51.467Z,10.00
2018-11-02T19:13:19.219Z,9.90
2018-11-02T19:15:46.671Z,9.80
2018-11-02T19:18:14.101Z,9.80
2018-11-02T19:20:41.455Z,9.80
2018-11-02T19:23:08.846Z,9.80
2018-11-02T19:25:36.293Z,9.80
2018-11-02T19:28:03.855Z,9.70
2018-11-02T19:30:31.208Z,9.70
2018-11-02T19:32:58.940Z,9.70
2018-11-02T19:35:26.436Z,9.60
2018-11-02T19:37:54.608Z,9.60
2018-11-02T19:40:21.979Z,9.50
2018-11-02T19:42:49.426Z,9.50
2018-11-02T19:45:16.849Z,9.40
2018-11-02T19:47:49.818Z,9.50
2018-11-02T19:50:18.137Z,9.50
2018-11-02T19:52:45.516Z,9.60
2018-11-02T19:55:13.328Z,9.80
2018-11-02T19:57:41.862Z,9.80
2018-11-02T20:00:10.073Z,9.80
2018-11-02T20:02:37.880Z,9.90
2018-11-02T20:05:06.169Z,9.90
2018-11-02T20:07:33.626Z,10.00
2018-11-02T20:10:01.335Z,10.00
2018-11-02T20:12:28.724Z,10.10
2018-11-02T20:14:56.124Z,10.10
2018-11-02T20:17:23.489Z,10.10
2018-11-02T20:19:50.884Z,10.10
2018-11-02T20:22:18.328Z,10.20
2018-11-02T20:24:45.749Z,10.30
2018-11-02T20:27:13.122Z,10.30
2018-11-02T20:29:41.149Z,10.20
2018-11-02T20:32:08.744Z,10.30
2018-11-02T20:34:36.038Z,10.30
2018-11-02T20:37:03.436Z,10.30
2018-11-02T20:39:30.896Z,10.30
2018-11-02T20:41:58.248Z,10.30
2018-11-02T20:44:25.660Z,10.30
2018-11-02T20:46:53.025Z,10.40
2018-11-02T20:49:20.495Z,10.40
2018-11-02T20:51:47.872Z,10.40
2018-11-02T20:54:15.365Z,10.40
2018-11-02T20:56:42.748Z,10.30
2018-11-02T20:59:10.282Z,10.30
2018-11-02T21:01:37.943Z,10.20
2018-11-02T21:04:05.545Z,10.20
2018-11-02T21:06:32.971Z,10.20
2018-11-02T21:09:00.646Z,10.20
2018-11-02T21:11:27.917Z,10.20
2018-11-02T21:13:55.799Z,10.20
2018-11-02T21:16:23.251Z,10.20
2018-11-02T21:18:50.592Z,10.10
2018-11-02T21:21:18.024Z,10.10
2018-11-02T21:23:45.503Z,10.10
2018-11-02T21:26:12.885Z,10.10
2018-11-02T21:28:40.330Z,10.00
2018-11-02T21:31:07.820Z,10.00
2018-11-02T21:33:35.240Z,10.10
2018-11-02T21:36:02.604Z,10.00
2018-11-02T21:38:30.005Z,10.00
2018-11-02T21:40:57.392Z,10.00
2018-11-02T21:43:24.759Z,10.00
2018-11-02T21:45:52.140Z,10.00
2018-11-02T21:48:19.588Z,10.00
2018-11-02T21:50:46.963Z,9.90
2018-11-02T21:53:14.456Z,9.90
2018-11-02T21:55:41.947Z,9.90
2018-11-02T21:58:09.677Z,9.90
2018-11-02T22:00:37.225Z,9.90
2018-11-02T22:03:04.762Z,9.90
2018-11-02T22:05:32.130Z,9.90
2018-11-02T22:07:59.540Z,9.80
2018-11-02T22:10:26.929Z,9.80
2018-11-02T22:12:54.280Z,9.80
2018-11-02T22:15:21.707Z,9.70
2018-11-02T22:17:49.187Z,9.70
2018-11-02T22:20:16.886Z,9.70
2018-11-02T22:22:44.272Z,9.70
2018-11-02T22:25:12.583Z,9.70
2018-11-02T22:27:40.068Z,9.70
2018-11-02T22:30:09.561Z,9.70
2018-11-02T22:32:37.017Z,9.70
2018-11-02T22:35:04.688Z,9.70
2018-11-02T22:37:32.094Z,9.70
2018-11-02T22:39:59.505Z,9.70
2018-11-02T22:42:27.337Z,9.70
2018-11-02T22:44:54.817Z,9.70
2018-11-02T22:47:22.232Z,9.70
2018-11-02T22:49:49.613Z,9.70
2018-11-02T22:52:17.054Z,9.70
2018-11-02T22:54:44.476Z,9.70
2018-11-02T22:57:11.851Z,9.70
2018-11-02T22:59:39.295Z,9.70
2018-11-02T23:02:06.773Z,9.70
2018-11-02T23:04:34.295Z,9.60
2018-11-02T23:07:01.687Z,9.60
2018-11-02T23:09:29.077Z,9.50
2018-11-02T23:11:56.499Z,9.60
2018-11-02T23:14:24.032Z,9.50
2018-11-02T23:16:51.438Z,9.50
2018-11-02T23:19:19.612Z,9.50
2018-11-02T23:21:46.952Z,9.50
2018-11-02T23:24:14.324Z,9.50
2018-11-02T23:26:41.746Z,9.50
2018-11-02T23:29:09.760Z,9.50
2018-11-02T23:31:37.632Z,9.50
2018-11-02T23:34:05.296Z,9.50
2018-11-02T23:36:32.837Z,9.50
2018-11-02T23:39:00.334Z,9.50
2018-11-02T23:41:27.778Z,9.50
2018-11-02T23:43:55.145Z,9.40
2018-11-02T23:46:22.508Z,9.40
2018-11-02T23:48:50.011Z,9.30
2018-11-02T23:51:17.456Z,9.30
2018-11-02T23:53:44.820Z,9.30
2018-11-02T23:56:12.176Z,9.20
2018-11-02T23:58:39.633Z,9.20
